Aviation Digital Data Service (ADDS)

Output produced by METARs form (1248 UTC 20 September 2017)
found at http://aviationweather.gov/adds/metars/
 
KSBY 201120Z 2012/2112 31010KT P6SM SCT025 BKN040 
     FM201700 31010KT P6SM SCT040 
     FM210000 VRB03KT P6SM SCT250